createdAt,value
2023-03-06T00:00:43.196Z,14.55
2023-03-06T00:03:09.784Z,20.70
2023-03-06T00:05:36.352Z,19.27
2023-03-06T00:08:03.845Z,22.00
2023-03-06T00:10:31.941Z,14.02
2023-03-06T00:13:01.812Z,16.92
2023-03-06T00:15:28.691Z,16.83
2023-03-06T00:17:56.112Z,16.73
2023-03-06T00:20:23.893Z,14.48
2023-03-06T00:22:51.452Z,14.90
2023-03-06T00:25:22.061Z,14.52
2023-03-06T00:27:49.239Z,14.75
2023-03-06T00:30:19.383Z,10.13
2023-03-06T00:32:46.020Z,8.90
2023-03-06T00:35:13.550Z,11.30
2023-03-06T00:37:40.564Z,8.83
2023-03-06T00:40:13.368Z,8.80
2023-03-06T00:42:40.270Z,9.53
2023-03-06T00:45:07.914Z,9.90
2023-03-06T00:47:34.429Z,12.27
2023-03-06T00:50:01.041Z,11.20
2023-03-06T00:52:27.612Z,18.10
2023-03-06T00:54:54.146Z,9.77
2023-03-06T00:57:20.722Z,16.05
2023-03-06T00:59:47.335Z,12.82
2023-03-06T01:02:14.223Z,11.63
2023-03-06T01:04:41.114Z,10.60
2023-03-06T01:07:07.951Z,10.73
2023-03-06T01:09:34.478Z,11.83
2023-03-06T01:12:01.148Z,9.87
2023-03-06T01:14:27.880Z,15.00
2023-03-06T01:16:54.465Z,12.07
2023-03-06T01:19:21.177Z,15.18
2023-03-06T01:21:47.782Z,10.67
2023-03-06T01:24:14.386Z,14.40
2023-03-06T01:26:40.960Z,17.67
2023-03-06T01:29:07.513Z,13.67
2023-03-06T01:31:34.148Z,12.47
2023-03-06T01:34:00.837Z,14.38
2023-03-06T01:36:27.526Z,13.93
2023-03-06T01:38:54.134Z,11.57
2023-03-06T01:41:21.539Z,13.47
2023-03-06T01:43:49.399Z,14.00
2023-03-06T01:46:38.931Z,14.47
2023-03-06T01:49:30.115Z,10.37
2023-03-06T01:52:09.009Z,11.32
2023-03-06T01:54:53.828Z,11.97
2023-03-06T01:57:28.810Z,10.37
2023-03-06T02:00:17.221Z,12.15
2023-03-06T02:02:47.448Z,9.23
2023-03-06T02:05:14.345Z,11.40
2023-03-06T02:07:42.803Z,14.40
2023-03-06T02:10:10.656Z,11.77
2023-03-06T02:12:40.516Z,11.37
2023-03-06T02:15:07.473Z,10.67
2023-03-06T02:17:35.842Z,11.73
2023-03-06T02:20:43.804Z,12.73
2023-03-06T02:23:31.803Z,12.73
2023-03-06T02:25:59.428Z,9.60
2023-03-06T02:28:26.006Z,12.53
2023-03-06T02:30:54.965Z,13.23
2023-03-06T02:33:25.003Z,12.10
2023-03-06T02:36:02.766Z,14.73
2023-03-06T02:38:47.282Z,9.95
2023-03-06T02:41:13.860Z,14.60
2023-03-06T02:43:42.789Z,13.57
2023-03-06T02:46:09.698Z,14.20
2023-03-06T02:48:36.482Z,11.47
2023-03-06T02:51:03.111Z,11.20
2023-03-06T02:53:29.739Z,10.73
2023-03-06T02:55:56.343Z,12.90
2023-03-06T02:58:23.319Z,13.17
2023-03-06T03:00:50.639Z,12.77
2023-03-06T03:03:17.645Z,10.37
2023-03-06T03:05:44.254Z,12.33
2023-03-06T03:08:10.830Z,10.73
2023-03-06T03:10:37.415Z,12.23
2023-03-06T03:13:03.959Z,14.75
2023-03-06T03:15:30.532Z,9.77
2023-03-06T03:17:57.180Z,14.00
2023-03-06T03:20:23.883Z,12.13
2023-03-06T03:22:52.660Z,16.77
2023-03-06T03:25:20.137Z,13.15
2023-03-06T03:27:46.783Z,10.70
2023-03-06T03:30:13.947Z,11.77
2023-03-06T03:32:40.893Z,12.35
2023-03-06T03:35:09.280Z,14.60
2023-03-06T03:37:37.396Z,14.05
2023-03-06T03:40:06.511Z,14.87
2023-03-06T03:42:33.118Z,12.75
2023-03-06T03:44:59.660Z,12.95
2023-03-06T03:47:26.197Z,14.53
2023-03-06T03:49:52.731Z,12.10
2023-03-06T03:52:19.409Z,12.23
2023-03-06T03:54:46.014Z,11.23
2023-03-06T03:57:12.580Z,9.88
2023-03-06T03:59:39.157Z,10.70
2023-03-06T04:02:05.813Z,12.03
2023-03-06T04:04:32.529Z,10.07
2023-03-06T04:06:59.138Z,12.73
2023-03-06T04:09:25.731Z,13.17
2023-03-06T04:11:52.312Z,10.30
2023-03-06T04:14:18.906Z,10.37
2023-03-06T04:16:45.595Z,10.37
2023-03-06T04:19:12.125Z,8.70
2023-03-06T04:21:38.716Z,14.90
2023-03-06T04:24:05.844Z,10.93
2023-03-06T04:26:32.466Z,11.33
2023-03-06T04:28:59.034Z,14.03
2023-03-06T04:31:25.775Z,15.07
2023-03-06T04:33:52.353Z,8.70
2023-03-06T04:36:31.112Z,11.23
2023-03-06T04:38:58.134Z,9.90
2023-03-06T04:41:24.752Z,9.07
2023-03-06T04:43:51.606Z,11.90
2023-03-06T04:46:18.271Z,11.23
2023-03-06T04:48:45.050Z,13.33
2023-03-06T04:51:13.966Z,12.00
2023-03-06T04:53:40.495Z,11.60
2023-03-06T04:56:07.379Z,13.93
2023-03-06T04:58:33.960Z,11.30
2023-03-06T05:01:00.533Z,12.23
2023-03-06T05:03:27.113Z,22.67
2023-03-06T05:05:53.707Z,10.67
2023-03-06T05:08:20.321Z,11.07
2023-03-06T05:10:57.052Z,9.93
2023-03-06T05:13:24.604Z,18.17
2023-03-06T05:15:51.139Z,14.40
2023-03-06T05:18:18.701Z,9.87
2023-03-06T05:20:45.232Z,9.17
2023-03-06T05:23:12.542Z,10.40
2023-03-06T05:25:40.520Z,8.93
2023-03-06T05:28:07.729Z,10.57
2023-03-06T05:30:34.599Z,10.43
2023-03-06T05:33:01.220Z,9.83
2023-03-06T05:35:28.179Z,13.13
2023-03-06T05:37:55.032Z,10.67
2023-03-06T05:40:21.784Z,12.70
2023-03-06T05:42:48.311Z,10.17
2023-03-06T05:45:15.118Z,10.63
2023-03-06T05:47:41.782Z,12.80
2023-03-06T05:50:10.463Z,11.20
2023-03-06T05:52:39.481Z,11.17
2023-03-06T05:55:07.476Z,13.83
2023-03-06T05:57:34.020Z,12.57
2023-03-06T06:00:00.752Z,9.10
2023-03-06T06:02:27.555Z,11.37
2023-03-06T06:04:54.109Z,11.00
2023-03-06T06:07:20.643Z,9.50
2023-03-06T06:09:47.267Z,13.80
2023-03-06T06:12:15.501Z,10.70
2023-03-06T06:14:42.113Z,9.23
2023-03-06T06:17:08.810Z,10.77
2023-03-06T06:19:35.499Z,13.80
2023-03-06T06:22:03.736Z,14.63
2023-03-06T06:24:30.501Z,13.80
2023-03-06T06:26:58.404Z,12.23
2023-03-06T06:29:26.756Z,13.50
2023-03-06T06:31:54.294Z,14.20
2023-03-06T06:34:21.545Z,13.33
2023-03-06T06:36:48.301Z,14.23
2023-03-06T06:39:17.020Z,12.30
2023-03-06T06:41:59.441Z,16.90
2023-03-06T06:44:30.749Z,11.50
2023-03-06T06:49:43.814Z,12.13
2023-03-06T06:52:10.695Z,11.13
2023-03-06T06:54:37.219Z,16.43
2023-03-06T06:57:03.870Z,12.37
2023-03-06T06:59:30.428Z,10.33
2023-03-06T07:01:57.173Z,17.73
2023-03-06T07:04:23.839Z,12.57
2023-03-06T07:06:50.345Z,13.53
2023-03-06T07:09:16.930Z,17.87
2023-03-06T07:11:43.785Z,12.20
2023-03-06T07:14:10.399Z,11.60
2023-03-06T07:16:36.969Z,14.63
2023-03-06T07:19:03.637Z,15.87
2023-03-06T07:21:30.179Z,17.27
2023-03-06T07:23:57.582Z,13.73
2023-03-06T07:26:25.876Z,17.67
2023-03-06T07:28:53.735Z,15.27
2023-03-06T07:31:22.434Z,15.03
2023-03-06T07:33:49.948Z,16.63
2023-03-06T07:36:17.298Z,13.10
2023-03-06T07:38:43.981Z,17.93
2023-03-06T07:41:13.637Z,19.10
2023-03-06T07:43:45.658Z,22.30
2023-03-06T07:46:14.455Z,15.37
2023-03-06T07:48:42.013Z,17.13
2023-03-06T07:51:14.150Z,16.67
2023-03-06T07:53:40.675Z,14.27
2023-03-06T07:56:09.104Z,18.40
2023-03-06T07:58:36.887Z,18.27
2023-03-06T08:01:09.377Z,13.83
2023-03-06T08:03:36.262Z,18.67
2023-03-06T08:06:14.748Z,23.13
2023-03-06T08:08:44.456Z,18.33
2023-03-06T08:11:12.921Z,14.30
2023-03-06T08:13:40.053Z,18.60
2023-03-06T08:16:07.852Z,21.27
2023-03-06T08:18:34.827Z,19.63
2023-03-06T08:21:03.278Z,19.70
2023-03-06T08:23:30.633Z,16.93
2023-03-06T08:26:02.429Z,16.70
2023-03-06T08:28:29.099Z,16.73
2023-03-06T08:30:56.726Z,17.53
2023-03-06T08:33:24.090Z,22.37
2023-03-06T08:35:52.371Z,17.33
2023-03-06T08:38:19.041Z,18.73
2023-03-06T08:40:45.544Z,16.37
2023-03-06T08:43:14.049Z,17.90
2023-03-06T08:45:40.983Z,21.43
2023-03-06T08:48:07.614Z,20.80
2023-03-06T08:50:34.235Z,18.83
2023-03-06T08:53:00.988Z,18.90
2023-03-06T08:55:28.228Z,18.10
2023-03-06T08:57:55.003Z,20.13
2023-03-06T09:00:21.722Z,16.50
2023-03-06T09:02:48.307Z,16.90
2023-03-06T09:05:14.968Z,16.50
2023-03-06T09:07:41.571Z,21.83
2023-03-06T09:10:12.704Z,23.20
2023-03-06T09:15:17.755Z,15.40
2023-03-06T09:17:44.460Z,19.87
2023-03-06T09:20:12.116Z,22.27
2023-03-06T09:22:38.837Z,20.73
2023-03-06T09:25:06.373Z,20.00
2023-03-06T09:27:33.132Z,16.42
2023-03-06T09:29:59.702Z,15.23
2023-03-06T09:32:26.455Z,15.48
2023-03-06T09:34:53.062Z,17.95
2023-03-06T09:37:19.616Z,19.60
2023-03-06T09:39:46.182Z,17.83
2023-03-06T09:42:18.294Z,15.83
2023-03-06T09:44:51.791Z,16.57
2023-03-06T09:47:28.582Z,18.52
2023-03-06T09:50:10.733Z,19.55
2023-03-06T09:53:07.501Z,16.20
2023-03-06T09:55:38.818Z,22.40
2023-03-06T09:58:15.853Z,20.52
2023-03-06T10:01:15.095Z,20.70
2023-03-06T10:03:57.153Z,28.43
2023-03-06T10:06:34.679Z,17.03
2023-03-06T10:09:11.021Z,20.98
2023-03-06T10:11:44.702Z,17.80
2023-03-06T10:14:27.398Z,13.88
2023-03-06T10:16:55.069Z,17.15
2023-03-06T10:19:22.279Z,18.48
2023-03-06T10:21:48.798Z,20.60
2023-03-06T10:24:45.299Z,18.40
2023-03-06T10:27:43.517Z,12.23
2023-03-06T10:30:22.413Z,17.60
2023-03-06T10:33:07.689Z,13.38
2023-03-06T10:35:44.643Z,15.50
2023-03-06T10:38:22.725Z,22.73
2023-03-06T10:41:08.114Z,20.98
2023-03-06T10:43:36.668Z,19.88
2023-03-06T10:46:05.389Z,14.55
2023-03-06T10:48:36.168Z,16.85
2023-03-06T10:51:24.070Z,20.30
2023-03-06T10:53:55.620Z,15.65
2023-03-06T10:56:36.974Z,17.33
2023-03-06T10:59:13.629Z,17.75
2023-03-06T11:01:42.013Z,18.67
2023-03-06T11:04:23.035Z,19.80
2023-03-06T11:07:07.414Z,19.25
2023-03-06T11:09:35.394Z,17.02
2023-03-06T11:12:26.351Z,17.80
2023-03-06T11:15:18.444Z,20.48
2023-03-06T11:17:55.418Z,20.67
2023-03-06T11:20:52.110Z,18.67
2023-03-06T11:23:22.113Z,16.23
2023-03-06T11:26:02.607Z,16.48
2023-03-06T11:28:33.520Z,18.35
2023-03-06T11:31:18.583Z,19.73
2023-03-06T11:34:03.970Z,17.08
2023-03-06T11:36:36.069Z,16.23
2023-03-06T11:39:33.177Z,16.08
2023-03-06T11:42:26.913Z,15.90
2023-03-06T11:45:10.239Z,17.90
2023-03-06T11:47:48.574Z,17.73
2023-03-06T11:50:46.630Z,14.52
2023-03-06T11:53:21.215Z,18.13
2023-03-06T11:56:20.235Z,18.67
2023-03-06T11:59:02.271Z,17.05
2023-03-06T12:01:50.325Z,18.95
2023-03-06T12:04:44.975Z,28.30
2023-03-06T12:07:26.952Z,17.77
2023-03-06T12:13:05.454Z,18.00
2023-03-06T12:15:50.802Z,15.88
2023-03-06T12:18:54.912Z,17.15
2023-03-06T12:22:15.792Z,12.48
2023-03-06T12:25:09.484Z,17.65
2023-03-06T12:27:46.158Z,13.18
2023-03-06T12:30:34.129Z,15.18
2023-03-06T12:33:43.758Z,19.20
2023-03-06T12:36:47.903Z,19.08
2023-03-06T12:39:33.301Z,23.60
2023-03-06T12:42:23.739Z,22.65
2023-03-06T12:44:53.092Z,15.75
2023-03-06T12:47:23.126Z,16.75
2023-03-06T12:50:01.143Z,20.90
2023-03-06T12:52:31.298Z,20.25
2023-03-06T12:55:01.066Z,18.43
2023-03-06T12:57:27.821Z,19.15
2023-03-06T12:59:54.791Z,25.17
2023-03-06T13:03:02.837Z,24.42
2023-03-06T13:05:41.372Z,19.83
2023-03-06T13:08:32.084Z,21.23
2023-03-06T13:11:31.138Z,18.83
2023-03-06T13:13:57.935Z,22.58
2023-03-06T13:16:33.532Z,15.73
2023-03-06T13:19:32.346Z,17.17
2023-03-06T13:22:01.839Z,12.68
2023-03-06T13:24:33.950Z,11.25
2023-03-06T13:27:12.097Z,7.72
2023-03-06T13:29:38.608Z,9.80
2023-03-06T13:32:13.028Z,14.00
2023-03-06T13:34:48.597Z,8.53
2023-03-06T13:37:23.140Z,11.70
2023-03-06T13:39:56.041Z,16.02
2023-03-06T13:42:29.834Z,11.50
2023-03-06T13:44:58.298Z,10.50
2023-03-06T13:47:45.053Z,10.32
2023-03-06T13:50:29.078Z,9.30
2023-03-06T13:53:07.743Z,9.77
2023-03-06T13:56:04.348Z,14.40
2023-03-06T13:58:49.676Z,18.73
2023-03-06T14:01:57.220Z,20.50
2023-03-06T14:04:53.371Z,17.90
2023-03-06T14:07:25.843Z,14.25
2023-03-06T14:10:14.956Z,15.93
2023-03-06T14:13:06.945Z,17.33
2023-03-06T14:15:42.735Z,20.58
2023-03-06T14:18:25.183Z,18.75
2023-03-06T14:20:56.705Z,19.25
2023-03-06T14:23:38.257Z,17.70
2023-03-06T14:26:20.019Z,18.63
2023-03-06T14:29:01.095Z,23.30
2023-03-06T14:31:36.067Z,23.85
2023-03-06T14:34:08.159Z,18.02
2023-03-06T14:36:43.997Z,21.85
2023-03-06T14:39:20.418Z,22.75
2023-03-06T14:41:47.071Z,21.73
2023-03-06T14:44:22.656Z,22.27
2023-03-06T14:46:57.549Z,21.50
2023-03-06T14:49:25.997Z,18.63
2023-03-06T14:52:00.606Z,18.13
2023-03-06T14:54:34.407Z,22.63
2023-03-06T14:57:06.053Z,27.60
2023-03-06T14:59:41.762Z,23.55
2023-03-06T15:02:13.609Z,24.65
2023-03-06T15:05:00.478Z,24.88
2023-03-06T15:07:32.365Z,22.13
2023-03-06T15:10:00.341Z,29.77
2023-03-06T15:12:27.256Z,28.42
2023-03-06T15:14:58.273Z,24.38
2023-03-06T15:17:27.778Z,23.05
2023-03-06T15:19:57.384Z,24.80
2023-03-06T15:22:37.910Z,23.50
2023-03-06T15:25:32.521Z,25.48
2023-03-06T15:28:01.915Z,22.85
2023-03-06T15:30:30.088Z,29.27
2023-03-06T15:33:26.142Z,25.23
2023-03-06T15:35:58.172Z,24.15
2023-03-06T15:38:32.925Z,27.60
2023-03-06T15:41:02.057Z,20.25
2023-03-06T15:43:33.703Z,21.00
2023-03-06T15:46:01.283Z,25.95
2023-03-06T15:48:28.546Z,27.80
2023-03-06T15:50:55.168Z,24.53
2023-03-06T15:53:21.865Z,25.00
2023-03-06T15:55:50.157Z,30.90
2023-03-06T15:58:20.643Z,20.23
2023-03-06T16:00:47.291Z,28.92
2023-03-06T16:03:13.911Z,20.93
2023-03-06T16:05:40.682Z,26.67
2023-03-06T16:08:07.766Z,21.65
2023-03-06T16:10:37.790Z,25.73
2023-03-06T16:13:12.422Z,24.52
2023-03-06T16:15:47.426Z,27.20
2023-03-06T16:18:13.983Z,43.43
2023-03-06T16:20:41.593Z,25.75
2023-03-06T16:23:10.620Z,36.40
2023-03-06T16:25:40.257Z,28.63
2023-03-06T16:28:12.161Z,35.40
2023-03-06T16:30:38.984Z,26.40
2023-03-06T16:33:05.800Z,22.65
2023-03-06T16:35:32.423Z,28.13
2023-03-06T16:38:00.098Z,18.60
2023-03-06T16:40:38.051Z,18.63
2023-03-06T16:43:05.429Z,21.40
2023-03-06T16:45:36.720Z,23.10
2023-03-06T16:48:03.678Z,27.60
2023-03-06T16:50:38.794Z,27.43
2023-03-06T16:53:06.349Z,23.87
2023-03-06T16:55:33.348Z,28.30
2023-03-06T16:58:00.100Z,21.63
2023-03-06T17:00:31.073Z,27.23
2023-03-06T17:05:24.588Z,21.23
2023-03-06T17:07:51.421Z,25.47
2023-03-06T17:10:19.288Z,26.00
2023-03-06T17:12:45.893Z,28.70
2023-03-06T17:15:12.504Z,24.57
2023-03-06T17:17:39.136Z,38.50
2023-03-06T17:20:08.156Z,24.92
2023-03-06T17:22:36.192Z,28.23
2023-03-06T17:25:05.152Z,26.00
2023-03-06T17:27:31.730Z,23.97
2023-03-06T17:29:58.782Z,22.73
2023-03-06T17:32:26.215Z,25.10
2023-03-06T17:34:52.821Z,23.73
2023-03-06T17:37:19.887Z,20.80
2023-03-06T17:39:47.072Z,29.40
2023-03-06T17:42:13.649Z,31.60
2023-03-06T17:44:40.441Z,22.83
2023-03-06T17:47:07.129Z,25.67
2023-03-06T17:49:33.705Z,19.60
2023-03-06T17:52:02.772Z,25.83
2023-03-06T17:54:30.192Z,24.63
2023-03-06T17:57:01.056Z,25.67
2023-03-06T17:59:28.183Z,29.65
2023-03-06T18:01:58.941Z,29.43
2023-03-06T18:04:26.151Z,33.85
2023-03-06T18:06:52.811Z,23.23
2023-03-06T18:09:20.914Z,28.17
2023-03-06T18:11:47.526Z,23.40
2023-03-06T18:14:14.232Z,22.10
2023-03-06T18:16:41.062Z,25.27
2023-03-06T18:19:10.910Z,22.63
2023-03-06T18:21:38.922Z,24.40
2023-03-06T18:24:05.940Z,22.77
2023-03-06T18:26:32.484Z,27.70
2023-03-06T18:29:01.919Z,23.57
2023-03-06T18:31:34.278Z,25.90
2023-03-06T18:34:10.709Z,25.43
2023-03-06T18:36:37.421Z,19.90
2023-03-06T18:39:08.501Z,28.60
2023-03-06T18:44:02.493Z,16.60
2023-03-06T18:46:37.680Z,17.73
2023-03-06T18:49:05.428Z,22.63
2023-03-06T18:51:32.334Z,24.57
2023-03-06T18:54:00.218Z,29.53
2023-03-06T18:56:27.111Z,22.73
2023-03-06T18:58:53.890Z,21.13
2023-03-06T19:01:22.481Z,23.13
2023-03-06T19:03:49.492Z,20.73
2023-03-06T19:06:17.421Z,22.77
2023-03-06T19:08:44.481Z,22.33
2023-03-06T19:11:14.315Z,22.40
2023-03-06T19:13:41.728Z,23.23
2023-03-06T19:16:09.379Z,25.97
2023-03-06T19:18:36.104Z,21.50
2023-03-06T19:21:17.876Z,27.87
2023-03-06T19:23:44.591Z,25.10
2023-03-06T19:26:11.751Z,29.70
2023-03-06T19:28:40.181Z,29.60
2023-03-06T19:31:21.061Z,28.73
2023-03-06T19:33:49.163Z,35.50
2023-03-06T19:36:17.330Z,28.40
2023-03-06T19:38:43.837Z,34.87
2023-03-06T19:41:13.501Z,31.93
2023-03-06T19:43:41.810Z,29.27
2023-03-06T19:46:14.672Z,29.60
2023-03-06T19:48:41.804Z,27.80
2023-03-06T19:51:08.937Z,27.63
2023-03-06T19:53:35.880Z,27.47
2023-03-06T19:56:21.134Z,39.70
2023-03-06T19:58:47.876Z,27.63
2023-03-06T20:01:20.044Z,39.90
2023-03-06T20:03:46.730Z,24.70
2023-03-06T20:06:15.997Z,29.53
2023-03-06T20:08:43.339Z,26.73
2023-03-06T20:11:21.612Z,36.83
2023-03-06T20:13:48.924Z,42.37
2023-03-06T20:16:16.975Z,30.67
2023-03-06T20:18:43.924Z,37.07
2023-03-06T20:21:10.540Z,31.37
2023-03-06T20:23:37.550Z,39.37
2023-03-06T20:26:06.451Z,35.83
2023-03-06T20:28:33.829Z,27.73
2023-03-06T20:31:06.518Z,35.57
2023-03-06T20:33:33.446Z,30.23
2023-03-06T20:36:00.153Z,39.23
2023-03-06T20:38:26.827Z,33.53
2023-03-06T20:40:57.852Z,33.93
2023-03-06T20:46:03.018Z,25.90
2023-03-06T20:48:29.971Z,35.70
2023-03-06T20:51:01.325Z,36.63
2023-03-06T20:53:28.240Z,25.10
2023-03-06T20:55:54.862Z,31.73
2023-03-06T20:58:23.272Z,31.63
2023-03-06T21:00:49.839Z,30.20
2023-03-06T21:03:16.409Z,35.17
2023-03-06T21:05:45.396Z,25.70
2023-03-06T21:08:11.932Z,35.07
2023-03-06T21:10:38.599Z,35.07
2023-03-06T21:13:05.251Z,37.00
2023-03-06T21:15:32.129Z,37.10
2023-03-06T21:17:58.881Z,31.27
2023-03-06T21:20:25.382Z,36.47
2023-03-06T21:22:52.022Z,33.00
2023-03-06T21:25:18.562Z,35.30
2023-03-06T21:27:45.082Z,36.90
2023-03-06T21:30:12.268Z,30.30
2023-03-06T21:32:38.878Z,33.30
2023-03-06T21:35:05.844Z,35.00
2023-03-06T21:37:32.531Z,30.83
2023-03-06T21:39:59.958Z,34.37
2023-03-06T21:42:26.510Z,43.00
2023-03-06T21:44:53.102Z,33.63
2023-03-06T21:47:19.637Z,30.73
2023-03-06T21:49:49.010Z,37.83
2023-03-06T21:52:15.688Z,31.17
2023-03-06T21:54:42.253Z,33.47
2023-03-06T21:57:08.861Z,32.27
2023-03-06T21:59:36.612Z,38.70
2023-03-06T22:02:03.170Z,37.80
2023-03-06T22:04:29.725Z,33.20
2023-03-06T22:06:56.374Z,36.83
2023-03-06T22:09:22.951Z,30.30
2023-03-06T22:11:49.510Z,35.30
2023-03-06T22:14:16.082Z,29.93
2023-03-06T22:16:42.623Z,32.27
2023-03-06T22:19:09.164Z,26.07
2023-03-06T22:21:35.794Z,33.43
2023-03-06T22:24:02.392Z,52.13
2023-03-06T22:26:31.336Z,33.97
2023-03-06T22:28:57.954Z,28.77
2023-03-06T22:31:28.347Z,24.17
2023-03-06T22:33:57.285Z,35.72
2023-03-06T22:36:24.595Z,25.47
2023-03-06T22:38:55.685Z,28.93
2023-03-06T22:43:49.213Z,29.73
2023-03-06T22:46:17.733Z,25.53
2023-03-06T22:48:44.876Z,40.53
2023-03-06T22:51:17.237Z,30.23
2023-03-06T22:53:43.887Z,35.67
2023-03-06T22:56:12.882Z,26.77
2023-03-06T22:58:40.305Z,29.53
2023-03-06T23:01:34.106Z,25.60
2023-03-06T23:04:03.483Z,32.57
2023-03-06T23:06:30.144Z,32.47
2023-03-06T23:09:06.443Z,35.80
2023-03-06T23:11:34.143Z,31.93
2023-03-06T23:14:01.407Z,29.07
2023-03-06T23:16:28.127Z,31.17
2023-03-06T23:18:54.744Z,31.03
2023-03-06T23:21:22.812Z,28.23
2023-03-06T23:23:51.207Z,29.30
2023-03-06T23:26:20.037Z,29.93
2023-03-06T23:28:46.673Z,30.67
2023-03-06T23:31:16.733Z,35.63
2023-03-06T23:33:43.617Z,25.87
2023-03-06T23:36:12.665Z,25.67
2023-03-06T23:38:39.967Z,34.83
2023-03-06T23:41:10.434Z,25.57
2023-03-06T23:43:37.155Z,32.20
2023-03-06T23:46:04.216Z,30.80
2023-03-06T23:48:31.016Z,29.27
2023-03-06T23:50:57.656Z,30.93
2023-03-06T23:53:24.490Z,29.50
2023-03-06T23:55:51.465Z,29.57
2023-03-06T23:58:19.519Z,29.20
